sensor_id;sensor_type;location;lat;lon;timestamp;temperature;humidity
23723;DHT22;12042;52.136;5.584;2022-12-05T07:03:11;4.90;99.90
23723;DHT22;12042;52.136;5.584;2022-12-05T07:05:37;5.00;99.90
23723;DHT22;12042;52.136;5.584;2022-12-05T07:08:02;5.10;99.90
23723;DHT22;12042;52.136;5.584;2022-12-05T07:10:31;5.20;99.90
23723;DHT22;12042;52.136;5.584;2022-12-05T07:12:57;5.20;99.90
23723;DHT22;12042;52.136;5.584;2022-12-05T07:15:22;4.70;99.90
23723;DHT22;12042;52.136;5.584;2022-12-05T07:17:48;5.10;99.90
23723;DHT22;12042;52.136;5.584;2022-12-05T07:20:14;5.10;99.90
23723;DHT22;12042;52.136;5.584;2022-12-05T07:22:42;5.10;99.90
23723;DHT22;12042;52.136;5.584;2022-12-05T07:25:09;4.70;99.90
23723;DHT22;12042;52.136;5.584;2022-12-05T07:27:34;4.60;99.90
23723;DHT22;12042;52.136;5.584;2022-12-05T07:30:00;5.10;99.90
23723;DHT22;12042;52.136;5.584;2022-12-05T07:32:26;4.60;99.90
23723;DHT22;12042;52.136;5.584;2022-12-05T07:34:51;5.10;99.90
23723;DHT22;12042;52.136;5.584;2022-12-05T07:37:17;5.10;99.90
23723;DHT22;12042;52.136;5.584;2022-12-05T07:39:43;5.10;99.90
23723;DHT22;12042;52.136;5.584;2022-12-05T07:42:08;4.70;99.90
23723;DHT22;12042;52.136;5.584;2022-12-05T07:44:34;5.10;99.90
23723;DHT22;12042;52.136;5.584;2022-12-05T07:47:00;5.10;99.90
23723;DHT22;12042;52.136;5.584;2022-12-05T07:49:25;5.20;99.90
23723;DHT22;12042;52.136;5.584;2022-12-05T07:51:51;5.20;99.90
23723;DHT22;12042;52.136;5.584;2022-12-05T07:54:17;5.10;99.90
23723;DHT22;12042;52.136;5.584;2022-12-05T07:56:43;5.10;99.90
23723;DHT22;12042;52.136;5.584;2022-12-05T07:59:08;5.20;99.90
23723;DHT22;12042;52.136;5.584;2022-12-05T08:01:34;5.20;99.90
23723;DHT22;12042;52.136;5.584;2022-12-05T08:04:00;5.30;99.90
23723;DHT22;12042;52.136;5.584;2022-12-05T08:06:28;5.20;99.90
23723;DHT22;12042;52.136;5.584;2022-12-05T08:08:54;4.90;99.90
23723;DHT22;12042;52.136;5.584;2022-12-05T08:11:26;5.30;99.90
23723;DHT22;12042;52.136;5.584;2022-12-05T08:13:52;5.20;99.90
23723;DHT22;12042;52.136;5.584;2022-12-05T08:16:20;5.10;99.90
23723;DHT22;12042;52.136;5.584;2022-12-05T08:18:46;5.30;99.90
23723;DHT22;12042;52.136;5.584;2022-12-05T08:21:14;5.00;99.90
23723;DHT22;12042;52.136;5.584;2022-12-05T08:23:40;5.10;99.90
23723;DHT22;12042;52.136;5.584;2022-12-05T08:26:14;5.00;99.90
23723;DHT22;12042;52.136;5.584;2022-12-05T08:28:41;5.00;99.90
23723;DHT22;12042;52.136;5.584;2022-12-05T08:31:08;5.40;99.90
23723;DHT22;12042;52.136;5.584;2022-12-05T08:33:34;5.40;99.90
23723;DHT22;12042;52.136;5.584;2022-12-05T08:36:01;5.40;99.90
23723;DHT22;12042;52.136;5.584;2022-12-05T08:38:27;5.30;99.90
23723;DHT22;12042;52.136;5.584;2022-12-05T08:40:52;5.00;99.90
23723;DHT22;12042;52.136;5.584;2022-12-05T08:43:18;5.40;99.90
23723;DHT22;12042;52.136;5.584;2022-12-05T08:45:52;5.00;99.90
23723;DHT22;12042;52.136;5.584;2022-12-05T08:48:18;5.20;99.90
23723;DHT22;12042;52.136;5.584;2022-12-05T08:50:44;5.40;99.90
23723;DHT22;12042;52.136;5.584;2022-12-05T08:53:10;5.20;99.90
23723;DHT22;12042;52.136;5.584;2022-12-05T08:55:36;5.50;99.90
23723;DHT22;12042;52.136;5.584;2022-12-05T08:58:02;5.10;99.90
23723;DHT22;12042;52.136;5.584;2022-12-05T09:00:28;5.80;99.90
23723;DHT22;12042;52.136;5.584;2022-12-05T09:02:54;5.90;99.90
23723;DHT22;12042;52.136;5.584;2022-12-05T09:05:20;5.50;99.90
23723;DHT22;12042;52.136;5.584;2022-12-05T09:07:49;5.60;99.90
23723;DHT22;12042;52.136;5.584;2022-12-05T09:10:15;5.50;99.90
23723;DHT22;12042;52.136;5.584;2022-12-05T09:12:43;5.50;99.90
23723;DHT22;12042;52.136;5.584;2022-12-05T09:15:10;5.60;99.90
23723;DHT22;12042;52.136;5.584;2022-12-05T09:17:36;5.60;99.90
23723;DHT22;12042;52.136;5.584;2022-12-05T09:20:03;5.10;99.90
23723;DHT22;12042;52.136;5.584;2022-12-05T09:22:29;5.70;99.90
23723;DHT22;12042;52.136;5.584;2022-12-05T09:24:54;5.70;99.90
23723;DHT22;12042;52.136;5.584;2022-12-05T09:27:20;5.80;99.90
23723;DHT22;12042;52.136;5.584;2022-12-05T09:29:45;5.70;99.90
23723;DHT22;12042;52.136;5.584;2022-12-05T09:32:11;5.70;99.90
23723;DHT22;12042;52.136;5.584;2022-12-05T09:34:37;5.60;99.90
23723;DHT22;12042;52.136;5.584;2022-12-05T09:37:03;5.70;99.90
23723;DHT22;12042;52.136;5.584;2022-12-05T09:39:29;6.00;99.90
23723;DHT22;12042;52.136;5.584;2022-12-05T09:44:57;5.70;99.90
23723;DHT22;12042;52.136;5.584;2022-12-05T09:47:34;5.70;99.90
23723;DHT22;12042;52.136;5.584;2022-12-05T09:52:59;5.60;99.90
23723;DHT22;12042;52.136;5.584;2022-12-05T09:55:34;5.60;99.90
23723;DHT22;12042;52.136;5.584;2022-12-05T09:58:02;5.60;99.90
23723;DHT22;12042;52.136;5.584;2022-12-05T10:00:29;5.20;99.90
23723;DHT22;12042;52.136;5.584;2022-12-05T10:03:23;5.70;99.90
23723;DHT22;12042;52.136;5.584;2022-12-05T10:06:11;5.20;99.90
23723;DHT22;12042;52.136;5.584;2022-12-05T10:12:09;5.70;99.90
23723;DHT22;12042;52.136;5.584;2022-12-05T10:20:34;5.80;99.90
23723;DHT22;12042;52.136;5.584;2022-12-05T10:23:16;5.80;99.90
23723;DHT22;12042;52.136;5.584;2022-12-05T10:25:43;5.60;99.90
23723;DHT22;12042;52.136;5.584;2022-12-05T10:28:14;5.80;99.90
23723;DHT22;12042;52.136;5.584;2022-12-05T10:30:43;5.80;99.90
23723;DHT22;12042;52.136;5.584;2022-12-05T10:33:19;6.10;99.90
23723;DHT22;12042;52.136;5.584;2022-12-05T10:35:45;5.90;99.90
23723;DHT22;12042;52.136;5.584;2022-12-05T10:38:12;5.80;99.90
23723;DHT22;12042;52.136;5.584;2022-12-05T10:40:43;5.80;99.90
23723;DHT22;12042;52.136;5.584;2022-12-05T10:43:13;5.40;99.90
23723;DHT22;12042;52.136;5.584;2022-12-05T10:45:43;5.80;99.90
23723;DHT22;12042;52.136;5.584;2022-12-05T10:48:12;5.50;99.90
23723;DHT22;12042;52.136;5.584;2022-12-05T10:50:39;6.00;99.90
23723;DHT22;12042;52.136;5.584;2022-12-05T10:53:07;5.90;99.90
23723;DHT22;12042;52.136;5.584;2022-12-05T10:55:40;6.00;99.90
23723;DHT22;12042;52.136;5.584;2022-12-05T10:58:14;5.50;99.90
23723;DHT22;12042;52.136;5.584;2022-12-05T11:00:42;6.10;99.90
23723;DHT22;12042;52.136;5.584;2022-12-05T11:06:33;6.00;99.90
23723;DHT22;12042;52.136;5.584;2022-12-05T11:08:40;6.00;99.90
23723;DHT22;12042;52.136;5.584;2022-12-05T11:11:27;6.10;99.90
23723;DHT22;12042;52.136;5.584;2022-12-05T11:16:23;5.60;99.90
23723;DHT22;12042;52.136;5.584;2022-12-05T11:18:49;5.70;99.90
23723;DHT22;12042;52.136;5.584;2022-12-05T11:21:15;6.10;99.90
23723;DHT22;12042;52.136;5.584;2022-12-05T11:23:44;6.40;99.90
23723;DHT22;12042;52.136;5.584;2022-12-05T11:26:33;6.20;99.90
23723;DHT22;12042;52.136;5.584;2022-12-05T11:29:36;5.70;99.90
23723;DHT22;12042;52.136;5.584;2022-12-05T11:32:05;6.20;99.90
23723;DHT22;12042;52.136;5.584;2022-12-05T11:34:52;6.20;99.90
23723;DHT22;12042;52.136;5.584;2022-12-05T11:37:25;6.20;99.90
23723;DHT22;12042;52.136;5.584;2022-12-05T11:39:52;5.90;99.90
23723;DHT22;12042;52.136;5.584;2022-12-05T11:42:30;6.20;99.90
23723;DHT22;12042;52.136;5.584;2022-12-05T11:45:20;6.20;99.90
23723;DHT22;12042;52.136;5.584;2022-12-05T11:56:34;6.20;99.90
23723;DHT22;12042;52.136;5.584;2022-12-05T12:07:18;6.00;99.90
23723;DHT22;12042;52.136;5.584;2022-12-05T12:12:54;6.00;99.90
23723;DHT22;12042;52.136;5.584;2022-12-05T12:20:48;5.60;99.90
23723;DHT22;12042;52.136;5.584;2022-12-05T12:23:38;6.10;99.90
23723;DHT22;12042;52.136;5.584;2022-12-05T12:26:19;6.10;99.90
23723;DHT22;12042;52.136;5.584;2022-12-05T12:29:02;6.10;99.90
23723;DHT22;12042;52.136;5.584;2022-12-05T12:32:00;5.80;99.90
23723;DHT22;12042;52.136;5.584;2022-12-05T12:37:16;6.10;99.90
23723;DHT22;12042;52.136;5.584;2022-12-05T12:42:47;6.20;99.90
23723;DHT22;12042;52.136;5.584;2022-12-05T12:51:00;6.10;99.90
23723;DHT22;12042;52.136;5.584;2022-12-05T12:53:30;5.90;99.90
23723;DHT22;12042;52.136;5.584;2022-12-05T12:56:25;6.10;99.90
23723;DHT22;12042;52.136;5.584;2022-12-05T13:01:39;6.10;99.90
23723;DHT22;12042;52.136;5.584;2022-12-05T13:04:14;5.60;99.90
23723;DHT22;12042;52.136;5.584;2022-12-05T13:09:22;6.40;99.90
23723;DHT22;12042;52.136;5.584;2022-12-05T13:11:51;6.00;99.90
23723;DHT22;12042;52.136;5.584;2022-12-05T13:14:22;6.10;99.90
23723;DHT22;12042;52.136;5.584;2022-12-05T13:16:51;6.00;99.90
23723;DHT22;12042;52.136;5.584;2022-12-05T13:19:49;6.10;99.90
23723;DHT22;12042;52.136;5.584;2022-12-05T13:22:17;6.10;99.90
23723;DHT22;12042;52.136;5.584;2022-12-05T13:24:44;5.50;99.90
23723;DHT22;12042;52.136;5.584;2022-12-05T13:27:19;5.70;99.90
23723;DHT22;12042;52.136;5.584;2022-12-05T13:29:57;6.10;99.90
23723;DHT22;12042;52.136;5.584;2022-12-05T13:34:49;5.70;99.90
23723;DHT22;12042;52.136;5.584;2022-12-05T13:40:05;5.90;99.90
23723;DHT22;12042;52.136;5.584;2022-12-05T13:42:59;6.00;99.90
23723;DHT22;12042;52.136;5.584;2022-12-05T13:45:26;6.00;99.90
23723;DHT22;12042;52.136;5.584;2022-12-05T13:50:31;6.00;99.90
23723;DHT22;12042;52.136;5.584;2022-12-05T13:53:35;6.00;99.90
23723;DHT22;12042;52.136;5.584;2022-12-05T14:04:00;6.00;99.90
23723;DHT22;12042;52.136;5.584;2022-12-05T14:17:40;6.10;99.90
23723;DHT22;12042;52.136;5.584;2022-12-05T14:25:47;6.10;99.90
23723;DHT22;12042;52.136;5.584;2022-12-05T14:33:31;6.00;99.90
23723;DHT22;12042;52.136;5.584;2022-12-05T14:36:04;5.50;99.90
23723;DHT22;12042;52.136;5.584;2022-12-05T14:38:34;6.00;99.90
23723;DHT22;12042;52.136;5.584;2022-12-05T14:41:37;5.60;99.90
23723;DHT22;12042;52.136;5.584;2022-12-05T14:44:16;6.00;99.90
23723;DHT22;12042;52.136;5.584;2022-12-05T14:46:44;6.00;99.90
23723;DHT22;12042;52.136;5.584;2022-12-05T14:52:10;6.10;99.90
23723;DHT22;12042;52.136;5.584;2022-12-05T14:54:37;6.10;99.90
23723;DHT22;12042;52.136;5.584;2022-12-05T14:57:11;6.40;99.90
23723;DHT22;12042;52.136;5.584;2022-12-05T14:59:51;6.60;99.90
23723;DHT22;12042;52.136;5.584;2022-12-05T15:02:25;5.80;99.90
23723;DHT22;12042;52.136;5.584;2022-12-05T15:07:39;6.00;99.90
23723;DHT22;12042;52.136;5.584;2022-12-05T15:15:36;6.00;99.90
23723;DHT22;12042;52.136;5.584;2022-12-05T15:18:30;6.00;99.90
23723;DHT22;12042;52.136;5.584;2022-12-05T15:21:09;6.00;99.90
23723;DHT22;12042;52.136;5.584;2022-12-05T15:23:42;6.10;99.90
23723;DHT22;12042;52.136;5.584;2022-12-05T15:31:59;6.00;99.90
23723;DHT22;12042;52.136;5.584;2022-12-05T15:37:25;6.00;99.90
23723;DHT22;12042;52.136;5.584;2022-12-05T15:39:57;6.50;99.90
23723;DHT22;12042;52.136;5.584;2022-12-05T15:42:25;6.00;99.90
23723;DHT22;12042;52.136;5.584;2022-12-05T15:44:59;5.60;99.90
23723;DHT22;12042;52.136;5.584;2022-12-05T15:47:34;6.00;99.90
23723;DHT22;12042;52.136;5.584;2022-12-05T15:50:00;6.20;99.90
23723;DHT22;12042;52.136;5.584;2022-12-05T15:52:36;6.20;99.90
23723;DHT22;12042;52.136;5.584;2022-12-05T15:55:07;6.20;99.90
23723;DHT22;12042;52.136;5.584;2022-12-05T15:57:43;6.20;99.90
23723;DHT22;12042;52.136;5.584;2022-12-05T16:00:15;5.90;99.90
23723;DHT22;12042;52.136;5.584;2022-12-05T16:02:45;6.20;99.90
23723;DHT22;12042;52.136;5.584;2022-12-05T16:07:49;6.60;99.90
23723;DHT22;12042;52.136;5.584;2022-12-05T16:10:15;5.70;99.90
23723;DHT22;12042;52.136;5.584;2022-12-05T16:12:42;6.20;99.90
23723;DHT22;12042;52.136;5.584;2022-12-05T16:15:22;5.70;99.90
23723;DHT22;12042;52.136;5.584;2022-12-05T16:17:54;6.20;99.90
23723;DHT22;12042;52.136;5.584;2022-12-05T16:20:31;6.20;99.90
23723;DHT22;12042;52.136;5.584;2022-12-05T16:23:21;6.20;99.90
23723;DHT22;12042;52.136;5.584;2022-12-05T16:25:47;6.10;99.90
23723;DHT22;12042;52.136;5.584;2022-12-05T16:28:16;5.70;99.90
23723;DHT22;12042;52.136;5.584;2022-12-05T16:30:59;6.50;99.90
23723;DHT22;12042;52.136;5.584;2022-12-05T16:33:27;6.10;99.90
23723;DHT22;12042;52.136;5.584;2022-12-05T16:35:53;5.90;99.90
23723;DHT22;12042;52.136;5.584;2022-12-05T16:38:22;5.60;99.90
23723;DHT22;12042;52.136;5.584;2022-12-05T16:40:58;6.10;99.90
23723;DHT22;12042;52.136;5.584;2022-12-05T16:43:42;6.50;99.90
23723;DHT22;12042;52.136;5.584;2022-12-05T16:48:45;6.00;99.90
23723;DHT22;12042;52.136;5.584;2022-12-05T16:51:24;6.00;99.90
23723;DHT22;12042;52.136;5.584;2022-12-05T16:53:54;6.00;99.90
23723;DHT22;12042;52.136;5.584;2022-12-05T16:56:25;5.60;99.90
23723;DHT22;12042;52.136;5.584;2022-12-05T16:58:52;6.10;99.90
23723;DHT22;12042;52.136;5.584;2022-12-05T17:01:21;6.10;99.90
23723;DHT22;12042;52.136;5.584;2022-12-05T17:03:47;5.60;99.90
23723;DHT22;12042;52.136;5.584;2022-12-05T17:06:13;5.60;99.90
23723;DHT22;12042;52.136;5.584;2022-12-05T17:08:40;5.70;99.90
23723;DHT22;12042;52.136;5.584;2022-12-05T17:11:13;6.10;99.90
23723;DHT22;12042;52.136;5.584;2022-12-05T17:13:40;5.60;99.90
23723;DHT22;12042;52.136;5.584;2022-12-05T17:16:06;5.60;99.90
23723;DHT22;12042;52.136;5.584;2022-12-05T17:18:32;6.20;99.90
23723;DHT22;12042;52.136;5.584;2022-12-05T17:20:59;6.10;99.90
23723;DHT22;12042;52.136;5.584;2022-12-05T17:23:25;6.10;99.90
23723;DHT22;12042;52.136;5.584;2022-12-05T17:25:56;6.50;99.90
23723;DHT22;12042;52.136;5.584;2022-12-05T17:28:22;6.10;99.90
23723;DHT22;12042;52.136;5.584;2022-12-05T17:30:48;6.10;99.90
23723;DHT22;12042;52.136;5.584;2022-12-05T17:33:16;6.10;99.90
23723;DHT22;12042;52.136;5.584;2022-12-05T17:35:43;5.70;99.90
23723;DHT22;12042;52.136;5.584;2022-12-05T17:38:09;6.10;99.90
23723;DHT22;12042;52.136;5.584;2022-12-05T17:40:36;5.60;99.90
23723;DHT22;12042;52.136;5.584;2022-12-05T17:43:02;5.70;99.90
23723;DHT22;12042;52.136;5.584;2022-12-05T17:45:28;6.20;99.90
23723;DHT22;12042;52.136;5.584;2022-12-05T17:47:54;5.90;99.90
23723;DHT22;12042;52.136;5.584;2022-12-05T17:50:21;6.10;99.90
23723;DHT22;12042;52.136;5.584;2022-12-05T17:52:48;6.10;99.90
23723;DHT22;12042;52.136;5.584;2022-12-05T17:55:23;5.90;99.90
23723;DHT22;12042;52.136;5.584;2022-12-05T17:57:49;6.10;99.90
23723;DHT22;12042;52.136;5.584;2022-12-05T18:00:16;6.20;99.90
23723;DHT22;12042;52.136;5.584;2022-12-05T18:02:43;6.10;99.90
23723;DHT22;12042;52.136;5.584;2022-12-05T18:05:14;6.00;99.90
23723;DHT22;12042;52.136;5.584;2022-12-05T18:07:41;6.60;99.90
23723;DHT22;12042;52.136;5.584;2022-12-05T18:10:10;6.10;99.90
23723;DHT22;12042;52.136;5.584;2022-12-05T18:12:36;6.10;99.90
23723;DHT22;12042;52.136;5.584;2022-12-05T18:15:02;6.20;99.90
23723;DHT22;12042;52.136;5.584;2022-12-05T18:17:29;6.10;99.90
23723;DHT22;12042;52.136;5.584;2022-12-05T18:19:55;6.10;99.90
23723;DHT22;12042;52.136;5.584;2022-12-05T18:22:22;5.80;99.90
23723;DHT22;12042;52.136;5.584;2022-12-05T18:24:48;5.70;99.90
23723;DHT22;12042;52.136;5.584;2022-12-05T18:27:13;6.20;99.90
23723;DHT22;12042;52.136;5.584;2022-12-05T18:29:39;5.70;99.90
23723;DHT22;12042;52.136;5.584;2022-12-05T18:32:05;5.80;99.90
23723;DHT22;12042;52.136;5.584;2022-12-05T18:34:30;6.00;99.90
23723;DHT22;12042;52.136;5.584;2022-12-05T18:36:56;6.40;99.90
23723;DHT22;12042;52.136;5.584;2022-12-05T18:39:22;6.20;99.90
23723;DHT22;12042;52.136;5.584;2022-12-05T18:41:47;6.20;99.90
23723;DHT22;12042;52.136;5.584;2022-12-05T18:44:13;6.20;99.90
23723;DHT22;12042;52.136;5.584;2022-12-05T18:46:39;6.00;99.90
23723;DHT22;12042;52.136;5.584;2022-12-05T18:49:04;6.00;99.90
23723;DHT22;12042;52.136;5.584;2022-12-05T18:51:30;6.20;99.90
23723;DHT22;12042;52.136;5.584;2022-12-05T18:53:56;5.80;99.90
23723;DHT22;12042;52.136;5.584;2022-12-05T18:56:29;6.20;99.90
23723;DHT22;12042;52.136;5.584;2022-12-05T18:58:58;6.20;99.90
23723;DHT22;12042;52.136;5.584;2022-12-05T19:01:25;5.90;99.90
23723;DHT22;12042;52.136;5.584;2022-12-05T19:03:51;6.60;99.90
23723;DHT22;12042;52.136;5.584;2022-12-05T19:06:19;6.30;99.90
23723;DHT22;12042;52.136;5.584;2022-12-05T19:08:46;6.00;99.90
23723;DHT22;12042;52.136;5.584;2022-12-05T19:11:13;6.20;99.90
23723;DHT22;12042;52.136;5.584;2022-12-05T19:13:39;6.20;99.90
23723;DHT22;12042;52.136;5.584;2022-12-05T19:16:10;6.20;99.90
23723;DHT22;12042;52.136;5.584;2022-12-05T19:18:41;6.10;99.90
23723;DHT22;12042;52.136;5.584;2022-12-05T19:21:07;6.10;99.90
23723;DHT22;12042;52.136;5.584;2022-12-05T19:23:33;6.20;99.90
23723;DHT22;12042;52.136;5.584;2022-12-05T19:26:04;6.30;99.90
23723;DHT22;12042;52.136;5.584;2022-12-05T19:28:34;6.50;99.90
23723;DHT22;12042;52.136;5.584;2022-12-05T19:31:10;6.70;99.90
23723;DHT22;12042;52.136;5.584;2022-12-05T19:33:38;6.70;99.90
23723;DHT22;12042;52.136;5.584;2022-12-05T19:36:06;6.70;99.90
23723;DHT22;12042;52.136;5.584;2022-12-05T19:38:33;6.70;99.90
23723;DHT22;12042;52.136;5.584;2022-12-05T19:41:00;7.00;99.90
23723;DHT22;12042;52.136;5.584;2022-12-05T19:43:27;7.10;99.90
23723;DHT22;12042;52.136;5.584;2022-12-05T19:45:54;6.70;99.90
23723;DHT22;12042;52.136;5.584;2022-12-05T19:48:20;7.10;99.90
23723;DHT22;12042;52.136;5.584;2022-12-05T19:50:52;6.60;99.90
23723;DHT22;12042;52.136;5.584;2022-12-05T19:53:18;6.80;99.90
23723;DHT22;12042;52.136;5.584;2022-12-05T19:55:44;7.30;99.90
23723;DHT22;12042;52.136;5.584;2022-12-05T19:58:10;6.70;99.90
23723;DHT22;12042;52.136;5.584;2022-12-05T20:00:35;7.30;99.90
23723;DHT22;12042;52.136;5.584;2022-12-05T20:03:01;7.00;99.90
23723;DHT22;12042;52.136;5.584;2022-12-05T20:05:26;7.00;99.90
23723;DHT22;12042;52.136;5.584;2022-12-05T20:07:54;6.40;99.90
23723;DHT22;12042;52.136;5.584;2022-12-05T20:10:19;6.50;99.90
23723;DHT22;12042;52.136;5.584;2022-12-05T20:12:45;6.40;99.90
23723;DHT22;12042;52.136;5.584;2022-12-05T20:15:10;6.40;99.90
23723;DHT22;12042;52.136;5.584;2022-12-05T20:17:36;6.90;99.90
23723;DHT22;12042;52.136;5.584;2022-12-05T20:20:03;6.40;99.90
23723;DHT22;12042;52.136;5.584;2022-12-05T20:22:28;6.70;99.90
23723;DHT22;12042;52.136;5.584;2022-12-05T20:24:55;6.30;99.90
23723;DHT22;12042;52.136;5.584;2022-12-05T20:27:21;6.80;99.90
23723;DHT22;12042;52.136;5.584;2022-12-05T20:29:47;6.70;99.90
23723;DHT22;12042;52.136;5.584;2022-12-05T20:32:12;7.10;99.90
23723;DHT22;12042;52.136;5.584;2022-12-05T20:34:38;6.70;99.90
23723;DHT22;12042;52.136;5.584;2022-12-05T20:37:03;6.30;99.90
23723;DHT22;12042;52.136;5.584;2022-12-05T20:39:29;6.70;99.90
23723;DHT22;12042;52.136;5.584;2022-12-05T20:41:55;6.40;99.90
23723;DHT22;12042;52.136;5.584;2022-12-05T20:44:20;7.10;99.90
23723;DHT22;12042;52.136;5.584;2022-12-05T20:46:50;6.20;99.90
23723;DHT22;12042;52.136;5.584;2022-12-05T20:49:16;6.90;99.90
23723;DHT22;12042;52.136;5.584;2022-12-05T20:51:44;6.70;99.90
23723;DHT22;12042;52.136;5.584;2022-12-05T20:54:11;7.00;99.90
23723;DHT22;12042;52.136;5.584;2022-12-05T20:56:37;6.40;99.90
23723;DHT22;12042;52.136;5.584;2022-12-05T20:59:05;6.60;99.90
23723;DHT22;12042;52.136;5.584;2022-12-05T21:01:33;6.60;99.90
23723;DHT22;12042;52.136;5.584;2022-12-05T21:03:59;6.70;99.90
23723;DHT22;12042;52.136;5.584;2022-12-05T21:06:27;6.70;99.90
23723;DHT22;12042;52.136;5.584;2022-12-05T21:08:53;6.90;99.90
23723;DHT22;12042;52.136;5.584;2022-12-05T21:11:20;6.10;99.90
23723;DHT22;12042;52.136;5.584;2022-12-05T21:13:48;6.70;99.90
23723;DHT22;12042;52.136;5.584;2022-12-05T21:16:19;7.10;99.90
23723;DHT22;12042;52.136;5.584;2022-12-05T21:18:46;6.60;99.90
23723;DHT22;12042;52.136;5.584;2022-12-05T21:21:15;6.30;99.90
23723;DHT22;12042;52.136;5.584;2022-12-05T21:23:41;6.60;99.90
23723;DHT22;12042;52.136;5.584;2022-12-05T21:26:11;6.70;99.90
23723;DHT22;12042;52.136;5.584;2022-12-05T21:28:37;6.50;99.90
